GRZ540 Details

Departure: Yellowknife Airport (CYZF)
Arrival: Ted Stevens Anchorage International Airport (PANC) at N/A
Route: YZF268095 63N20 YWY NCA17 ORT J124 GKN PTERS3
Notes:


Current Weather Information
CYZF 171700Z 03011G19KT 15SM SCT040 SCT130 12/04 A2987 RMK SC3AC1 SLP125
PANC 171653Z 35018G27KT 10SM FEW200 16/03 A3017 RMK AO2 PK WND 35027/1653 SLP218 T01560033